createdAt,value
2019-03-19T00:00:12.267Z,97114.53
2019-03-19T00:02:42.729Z,97116.55
2019-03-19T00:05:13.291Z,97123.12
2019-03-19T00:07:43.756Z,97117.48
2019-03-19T00:10:14.280Z,97114.53
2019-03-19T00:12:44.794Z,97121.36
2019-03-19T00:15:15.454Z,97119.92
2019-03-19T00:17:45.772Z,97116.52
2019-03-19T00:20:16.187Z,97124.41
2019-03-19T00:22:46.595Z,97125.09
2019-03-19T00:25:17.022Z,97123.69
2019-03-19T00:27:47.545Z,97131.91
2019-03-19T00:30:17.955Z,97131.09
2019-03-19T00:32:48.387Z,97118.05
2019-03-19T00:35:18.781Z,97123.55
2019-03-19T00:37:49.178Z,97126.85
2019-03-19T00:40:19.622Z,97132.02
2019-03-19T00:42:50.077Z,97134.85
2019-03-19T00:45:20.556Z,97133.66
2019-03-19T00:47:50.990Z,97134.23
2019-03-19T00:50:21.491Z,97136.81
2019-03-19T00:52:52.035Z,97140.58
2019-03-19T00:55:22.462Z,97143.62
2019-03-19T00:57:52.762Z,97141.14
2019-03-19T01:00:23.219Z,97145.21
2019-03-19T01:02:53.643Z,97136.52
2019-03-19T01:05:24.043Z,97137.42
2019-03-19T01:07:54.351Z,97137.64
2019-03-19T01:10:24.797Z,97136.33
2019-03-19T01:12:55.252Z,97140.19
2019-03-19T01:15:25.665Z,97134.30
2019-03-19T01:17:56.032Z,97130.66
2019-03-19T01:20:26.415Z,97131.10
2019-03-19T01:22:56.785Z,97135.91
2019-03-19T01:25:27.080Z,97137.32
2019-03-19T01:27:57.550Z,97129.94
2019-03-19T01:30:28.032Z,97141.20
2019-03-19T01:32:58.321Z,97138.05
2019-03-19T01:35:28.713Z,97125.13
2019-03-19T01:37:59.122Z,97133.24
2019-03-19T01:40:29.598Z,97130.30
2019-03-19T01:42:59.981Z,97124.30
2019-03-19T01:45:30.474Z,97123.84
2019-03-19T01:48:00.838Z,97123.72
2019-03-19T01:50:31.336Z,97130.02
2019-03-19T01:53:01.946Z,97132.39
2019-03-19T01:55:32.397Z,97135.42
2019-03-19T01:58:02.812Z,97141.52
2019-03-19T02:00:33.307Z,97135.44
2019-03-19T02:03:03.755Z,97128.88
2019-03-19T02:05:34.139Z,97134.05
2019-03-19T02:08:04.533Z,97138.98
2019-03-19T02:10:35.013Z,97137.32
2019-03-19T02:13:09.689Z,97138.25
2019-03-19T02:15:43.734Z,97142.80
2019-03-19T02:22:25.909Z,97137.43
2019-03-19T02:25:04.874Z,97138.45
2019-03-19T02:27:37.418Z,97138.25
2019-03-19T02:30:14.245Z,97135.80
2019-03-19T02:32:49.662Z,97138.22
2019-03-19T02:35:22.502Z,97133.41
2019-03-19T02:37:56.204Z,97136.09
2019-03-19T02:40:31.007Z,97139.83
2019-03-19T02:59:29.534Z,97158.80
2019-03-19T03:08:07.878Z,97159.28
2019-03-19T03:11:20.441Z,97158.55
2019-03-19T03:14:38.421Z,97168.88
2019-03-19T03:16:24.938Z,97170.53
2019-03-19T03:19:01.748Z,97164.45
2019-03-19T03:21:34.550Z,97161.50
2019-03-19T03:24:14.539Z,97171.45
2019-03-19T03:37:21.346Z,97189.19
2019-03-19T03:40:06.491Z,97191.43
2019-03-19T03:42:44.902Z,97190.08
2019-03-19T03:45:27.837Z,97180.39
2019-03-19T03:48:09.934Z,97182.67
2019-03-19T03:51:08.293Z,97185.16
2019-03-19T03:53:17.600Z,97187.34
2019-03-19T04:01:11.693Z,97187.06
2019-03-19T04:03:51.171Z,97197.02
2019-03-19T04:06:25.009Z,97201.58
2019-03-19T04:08:56.773Z,97202.59
2019-03-19T04:11:31.472Z,97197.97
2019-03-19T04:14:08.248Z,97194.44
2019-03-19T04:16:51.200Z,97199.41
2019-03-19T04:19:34.247Z,97198.63
2019-03-19T04:22:54.696Z,97205.44
2019-03-19T04:25:13.516Z,97208.58
2019-03-19T04:27:58.699Z,97210.59
2019-03-19T04:30:43.342Z,97207.83
2019-03-19T04:33:20.801Z,97206.46
2019-03-19T04:35:58.025Z,97206.73
2019-03-19T04:38:52.304Z,97210.55
2019-03-19T04:41:31.755Z,97212.70
2019-03-19T04:49:00.740Z,97215.30
2019-03-19T04:50:09.971Z,97224.64
2019-03-19T04:52:40.608Z,97229.44
2019-03-19T04:55:18.594Z,97230.87
2019-03-19T04:57:53.940Z,97235.05
2019-03-19T05:00:27.477Z,97237.63
2019-03-19T05:03:00.275Z,97236.70
2019-03-19T05:05:38.124Z,97234.22
2019-03-19T05:08:13.619Z,97237.45
2019-03-19T05:10:46.347Z,97235.37
2019-03-19T05:13:17.399Z,97237.16
2019-03-19T05:15:48.983Z,97239.09
2019-03-19T05:18:28.548Z,97244.20
2019-03-19T05:21:01.809Z,97246.77
2019-03-19T05:23:34.161Z,97244.75
2019-03-19T05:26:06.434Z,97243.77
2019-03-19T05:28:41.874Z,97243.31
2019-03-19T05:31:16.369Z,97248.69
2019-03-19T05:33:53.271Z,97254.17
2019-03-19T05:36:31.855Z,97255.68
2019-03-19T05:39:00.068Z,97259.55
2019-03-19T05:41:44.289Z,97258.41
2019-03-19T05:44:15.089Z,97264.67
2019-03-19T05:46:49.546Z,97253.84
2019-03-19T05:49:32.631Z,97261.27
2019-03-19T05:51:57.598Z,97259.48
2019-03-19T05:54:38.125Z,97262.91
2019-03-19T05:57:10.913Z,97268.95
2019-03-19T05:59:42.550Z,97273.02
2019-03-19T06:02:13.607Z,97278.03
2019-03-19T06:04:46.662Z,97275.05
2019-03-19T06:07:19.076Z,97281.22
2019-03-19T06:10:19.381Z,97282.69
2019-03-19T06:13:14.781Z,97287.89
2019-03-19T06:15:49.754Z,97296.27
2019-03-19T06:18:22.434Z,97296.66
2019-03-19T06:20:58.005Z,97299.78
2019-03-19T06:23:34.440Z,97308.03
2019-03-19T06:26:10.389Z,97314.66
2019-03-19T06:28:41.342Z,97316.09
2019-03-19T06:31:38.500Z,97315.42
2019-03-19T06:34:13.624Z,97309.63
2019-03-19T06:36:46.443Z,97311.11
2019-03-19T06:39:20.618Z,97316.13
2019-03-19T06:42:10.755Z,97321.14
2019-03-19T06:49:08.584Z,97324.44
2019-03-19T06:52:02.632Z,97331.31
2019-03-19T06:54:42.992Z,97330.56
2019-03-19T06:57:38.707Z,97334.69
2019-03-19T07:04:13.623Z,97342.50
2019-03-19T07:06:48.198Z,97341.21
2019-03-19T07:13:04.633Z,97349.92
2019-03-19T07:15:35.071Z,97349.93
2019-03-19T07:18:05.595Z,97354.90
2019-03-19T07:21:01.137Z,97355.61
2019-03-19T07:23:31.752Z,97342.55
2019-03-19T07:26:05.540Z,97352.33
2019-03-19T07:28:37.144Z,97354.06
2019-03-19T07:31:09.987Z,97363.01
2019-03-19T07:33:44.125Z,97361.34
2019-03-19T07:36:15.428Z,97362.23
2019-03-19T07:38:46.333Z,97362.57
2019-03-19T07:41:17.780Z,97369.37
2019-03-19T07:43:48.759Z,97368.88
2019-03-19T07:46:19.798Z,97365.30
2019-03-19T07:48:52.816Z,97366.27
2019-03-19T07:51:23.392Z,97369.41
2019-03-19T07:53:54.444Z,97374.31
2019-03-19T07:56:25.690Z,97373.64
2019-03-19T07:58:56.576Z,97372.52
2019-03-19T08:01:27.368Z,97373.09
2019-03-19T08:03:58.315Z,97373.03
2019-03-19T08:06:29.204Z,97381.31
2019-03-19T08:09:00.155Z,97387.30
2019-03-19T08:11:37.574Z,97392.15
2019-03-19T08:14:08.978Z,97387.63
2019-03-19T08:16:39.937Z,97389.72
2019-03-19T08:19:10.751Z,97395.34
2019-03-19T08:21:41.610Z,97390.18
2019-03-19T08:24:12.447Z,97393.02
2019-03-19T08:26:43.476Z,97385.17
2019-03-19T08:29:16.212Z,97390.38
2019-03-19T08:31:47.285Z,97401.92
2019-03-19T08:34:18.836Z,97405.51
2019-03-19T08:36:52.973Z,97400.91
2019-03-19T08:39:28.688Z,97406.52
2019-03-19T08:42:02.378Z,97404.52
2019-03-19T08:44:33.496Z,97400.61
2019-03-19T08:47:05.838Z,97411.63
2019-03-19T08:49:37.454Z,97415.02
2019-03-19T08:52:19.760Z,97416.00
2019-03-19T08:54:57.066Z,97409.48
2019-03-19T08:57:41.334Z,97415.05
2019-03-19T09:00:30.209Z,97419.31
2019-03-19T09:03:11.235Z,97412.81
2019-03-19T09:05:47.882Z,97415.30
2019-03-19T09:08:52.144Z,97415.17
2019-03-19T09:11:13.779Z,97414.51
2019-03-19T09:13:44.315Z,97407.81
2019-03-19T09:16:14.900Z,97416.88
2019-03-19T09:18:45.377Z,97414.13
2019-03-19T09:21:15.877Z,97411.35
2019-03-19T09:23:46.328Z,97415.52
2019-03-19T09:26:17.141Z,97413.52
2019-03-19T09:28:47.606Z,97409.26
2019-03-19T09:31:18.063Z,97414.80
2019-03-19T09:33:48.482Z,97412.94
2019-03-19T09:36:18.966Z,97410.08
2019-03-19T09:38:49.358Z,97417.93
2019-03-19T09:41:19.713Z,97409.59
2019-03-19T09:43:50.127Z,97411.24
2019-03-19T09:46:20.802Z,97415.91
2019-03-19T09:48:51.305Z,97416.13
2019-03-19T09:51:21.804Z,97421.41
2019-03-19T09:53:52.293Z,97426.81
2019-03-19T09:56:22.665Z,97428.30
2019-03-19T09:58:57.474Z,97427.27
2019-03-19T10:01:27.965Z,97423.13
2019-03-19T10:03:58.415Z,97428.74
2019-03-19T10:06:28.856Z,97434.23
2019-03-19T10:08:59.238Z,97421.88
2019-03-19T10:11:29.723Z,97407.66
2019-03-19T10:14:02.203Z,97409.06
2019-03-19T10:16:32.697Z,97408.42
2019-03-19T10:19:03.129Z,97413.88
2019-03-19T10:21:33.585Z,97410.66
2019-03-19T10:24:04.013Z,97417.95
2019-03-19T10:26:34.490Z,97414.48
2019-03-19T10:29:04.931Z,97423.08
2019-03-19T10:31:35.366Z,97432.39
2019-03-19T10:34:05.860Z,97429.69
2019-03-19T10:36:36.331Z,97417.45
2019-03-19T10:39:09.338Z,97420.39
2019-03-19T10:41:39.760Z,97424.69
2019-03-19T10:44:10.154Z,97420.92
2019-03-19T10:46:40.624Z,97418.02
2019-03-19T10:49:11.046Z,97415.05
2019-03-19T10:51:41.504Z,97417.95
2019-03-19T10:54:12.171Z,97416.39
2019-03-19T10:56:42.522Z,97416.28
2019-03-19T10:59:12.881Z,97429.23
2019-03-19T11:01:43.297Z,97429.41
2019-03-19T11:04:13.689Z,97434.73
2019-03-19T11:06:44.108Z,97431.06
2019-03-19T11:09:14.641Z,97430.32
2019-03-19T11:11:45.192Z,97436.75
2019-03-19T11:14:15.686Z,97439.95
2019-03-19T11:16:46.188Z,97445.08
2019-03-19T11:19:16.533Z,97438.19
2019-03-19T11:21:46.845Z,97438.10
2019-03-19T11:24:17.187Z,97433.95
2019-03-19T11:26:47.510Z,97432.48
2019-03-19T11:29:18.070Z,97440.31
2019-03-19T11:31:48.505Z,97429.98
2019-03-19T11:34:18.910Z,97427.09
2019-03-19T11:36:57.440Z,97420.84
2019-03-19T11:39:21.609Z,97429.22
2019-03-19T11:41:52.002Z,97427.10
2019-03-19T11:44:22.579Z,97427.82
2019-03-19T11:46:53.677Z,97427.92
2019-03-19T11:49:24.223Z,97423.77
2019-03-19T11:51:56.338Z,97415.41
2019-03-19T11:54:26.828Z,97415.51
2019-03-19T11:56:57.348Z,97415.48
2019-03-19T11:59:27.800Z,97416.45
2019-03-19T12:01:58.256Z,97429.45
2019-03-19T12:04:28.825Z,97426.22
2019-03-19T12:06:59.196Z,97431.83
2019-03-19T12:09:29.536Z,97432.22
2019-03-19T12:11:59.889Z,97431.09
2019-03-19T12:14:30.386Z,97427.48
2019-03-19T12:17:00.876Z,97425.84
2019-03-19T12:19:31.406Z,97428.45
2019-03-19T12:22:01.933Z,97425.11
2019-03-19T12:24:32.873Z,97421.33
2019-03-19T12:27:03.440Z,97423.16
2019-03-19T12:29:33.933Z,97416.30
2019-03-19T12:32:04.562Z,97423.64
2019-03-19T12:34:35.073Z,97416.66
2019-03-19T12:37:05.474Z,97408.87
2019-03-19T12:39:35.946Z,97407.27
2019-03-19T12:42:06.377Z,97407.83
2019-03-19T12:44:36.855Z,97407.84
2019-03-19T12:47:07.235Z,97401.71
2019-03-19T12:49:37.633Z,97405.75
2019-03-19T12:52:08.216Z,97402.56
2019-03-19T12:54:38.634Z,97409.07
2019-03-19T12:57:09.104Z,97414.55
2019-03-19T12:59:39.483Z,97410.59
2019-03-19T13:02:10.259Z,97413.84
2019-03-19T13:04:40.799Z,97415.35
2019-03-19T13:07:11.305Z,97415.16
2019-03-19T13:09:41.838Z,97421.17
2019-03-19T13:12:12.205Z,97422.42
2019-03-19T13:14:42.764Z,97425.30
2019-03-19T13:17:13.253Z,97419.63
2019-03-19T13:19:43.826Z,97422.58
2019-03-19T13:22:14.290Z,97420.06
2019-03-19T13:24:44.719Z,97422.25
2019-03-19T13:27:15.097Z,97425.56
2019-03-19T13:29:45.422Z,97428.20
2019-03-19T13:32:15.820Z,97426.59
2019-03-19T13:34:46.245Z,97428.64
2019-03-19T13:37:16.760Z,97430.16
2019-03-19T13:39:47.282Z,97427.02
2019-03-19T13:42:17.873Z,97424.85
2019-03-19T13:44:48.332Z,97426.34
2019-03-19T13:47:18.724Z,97426.39
2019-03-19T13:49:49.107Z,97424.03
2019-03-19T13:52:19.603Z,97417.70
2019-03-19T13:54:50.067Z,97418.13
2019-03-19T13:57:20.555Z,97417.08
2019-03-19T13:59:50.939Z,97417.81
2019-03-19T14:02:21.372Z,97423.17
2019-03-19T14:04:51.813Z,97416.63
2019-03-19T14:07:22.237Z,97419.80
2019-03-19T14:09:52.762Z,97423.55
2019-03-19T14:12:23.100Z,97424.53
2019-03-19T14:14:53.971Z,97428.61
2019-03-19T14:17:24.477Z,97426.45
2019-03-19T14:19:55.040Z,97427.91
2019-03-19T14:22:25.475Z,97428.70
2019-03-19T14:24:55.867Z,97433.88
2019-03-19T14:27:26.369Z,97437.14
2019-03-19T14:29:56.808Z,97433.50
2019-03-19T14:32:27.153Z,97439.72
2019-03-19T14:34:57.620Z,97437.43
2019-03-19T14:37:28.076Z,97432.04
2019-03-19T14:39:58.625Z,97440.13
2019-03-19T14:42:29.023Z,97443.55
2019-03-19T14:44:59.438Z,97441.03
2019-03-19T14:47:29.747Z,97433.05
2019-03-19T14:50:00.323Z,97431.23
2019-03-19T14:52:30.803Z,97440.33
2019-03-19T14:55:01.222Z,97446.00
2019-03-19T14:57:31.703Z,97452.34
2019-03-19T15:00:02.134Z,97450.95
2019-03-19T15:02:32.564Z,97452.98
2019-03-19T15:05:03.034Z,97450.43
2019-03-19T15:07:33.404Z,97445.14
2019-03-19T15:10:03.888Z,97440.69
2019-03-19T15:12:34.267Z,97448.59
2019-03-19T15:15:05.129Z,97451.64
2019-03-19T15:17:35.772Z,97445.41
2019-03-19T15:20:08.258Z,97444.22
2019-03-19T15:22:38.757Z,97458.36
2019-03-19T15:25:09.339Z,97456.33
2019-03-19T15:27:39.865Z,97449.68
2019-03-19T15:30:10.368Z,97455.86
2019-03-19T15:32:40.835Z,97456.23
2019-03-19T15:35:11.687Z,97452.77
2019-03-19T15:37:42.094Z,97456.83
2019-03-19T15:40:13.605Z,97449.24
2019-03-19T15:42:44.123Z,97451.16
2019-03-19T15:45:14.643Z,97457.67
2019-03-19T15:47:45.058Z,97459.02
2019-03-19T15:50:16.135Z,97462.37
2019-03-19T15:52:46.448Z,97455.47
2019-03-19T15:55:16.880Z,97462.27
2019-03-19T15:57:47.276Z,97466.61
2019-03-19T16:00:17.765Z,97462.56
2019-03-19T16:02:48.196Z,97463.53
2019-03-19T16:05:18.652Z,97470.30
2019-03-19T16:07:49.058Z,97467.83
2019-03-19T16:10:19.443Z,97471.84
2019-03-19T16:12:49.875Z,97480.27
2019-03-19T16:15:21.114Z,97477.00
2019-03-19T16:17:51.593Z,97480.70
2019-03-19T16:20:21.997Z,97482.73
2019-03-19T16:22:52.451Z,97488.25
2019-03-19T16:25:22.813Z,97498.85
2019-03-19T16:27:53.187Z,97500.73
2019-03-19T16:30:23.535Z,97508.73
2019-03-19T16:32:53.955Z,97510.09
2019-03-19T16:35:24.371Z,97509.39
2019-03-19T16:37:54.679Z,97515.91
2019-03-19T16:40:25.131Z,97517.17
2019-03-19T16:42:55.515Z,97513.46
2019-03-19T16:45:25.965Z,97513.46
2019-03-19T16:47:56.344Z,97516.42
2019-03-19T16:50:26.773Z,97516.07
2019-03-19T16:52:57.091Z,97524.75
2019-03-19T16:55:27.533Z,97521.23
2019-03-19T16:57:57.909Z,97524.75
2019-03-19T17:00:28.322Z,97529.05
2019-03-19T17:02:58.737Z,97526.52
2019-03-19T17:05:29.121Z,97532.02
2019-03-19T17:07:59.565Z,97537.14
2019-03-19T17:10:30.041Z,97540.38
2019-03-19T17:13:00.527Z,97541.59
2019-03-19T17:15:30.971Z,97542.32
2019-03-19T17:18:01.311Z,97551.02
2019-03-19T17:20:31.705Z,97553.45
2019-03-19T17:23:02.045Z,97557.95
2019-03-19T17:25:32.426Z,97569.50
2019-03-19T17:28:02.861Z,97570.28
2019-03-19T17:30:33.384Z,97581.27
2019-03-19T17:33:03.919Z,97582.72
2019-03-19T17:35:34.571Z,97586.23
2019-03-19T17:38:04.958Z,97591.73
2019-03-19T17:40:41.370Z,97589.89
2019-03-19T17:43:07.710Z,97597.47
2019-03-19T17:45:38.144Z,97603.55
2019-03-19T17:48:15.988Z,97605.08
2019-03-19T17:50:40.797Z,97607.94
2019-03-19T17:53:11.429Z,97614.19
2019-03-19T17:55:41.895Z,97620.70
2019-03-19T17:58:12.430Z,97621.88
2019-03-19T18:00:44.265Z,97624.50
2019-03-19T18:03:14.668Z,97620.83
2019-03-19T18:05:45.102Z,97628.63
2019-03-19T18:08:15.565Z,97636.88
2019-03-19T18:10:46.022Z,97645.03
2019-03-19T18:13:16.483Z,97642.19
2019-03-19T18:15:46.922Z,97642.39
2019-03-19T18:18:17.363Z,97647.09
2019-03-19T18:20:47.815Z,97644.02
2019-03-19T18:23:18.230Z,97652.02
2019-03-19T18:25:48.693Z,97652.02
2019-03-19T18:28:19.175Z,97653.95
2019-03-19T18:30:49.711Z,97656.80
2019-03-19T18:33:20.154Z,97665.75
2019-03-19T18:35:50.637Z,97670.38
2019-03-19T18:38:21.029Z,97673.78
2019-03-19T18:40:51.381Z,97672.94
2019-03-19T18:43:21.945Z,97679.41
2019-03-19T18:45:52.357Z,97677.03
2019-03-19T18:48:22.795Z,97680.20
2019-03-19T18:50:53.213Z,97682.57
2019-03-19T18:53:23.771Z,97687.50
2019-03-19T18:55:54.221Z,97685.00
2019-03-19T18:58:24.650Z,97690.87
2019-03-19T19:00:54.955Z,97690.33
2019-03-19T19:03:25.371Z,97694.80
2019-03-19T19:05:55.765Z,97697.80
2019-03-19T19:08:26.149Z,97697.67
2019-03-19T19:10:56.655Z,97703.31
2019-03-19T19:13:27.086Z,97701.72
2019-03-19T19:15:57.493Z,97708.92
2019-03-19T19:18:27.872Z,97715.53
2019-03-19T19:20:58.239Z,97713.44
2019-03-19T19:23:28.831Z,97712.05
2019-03-19T19:26:00.402Z,97721.25
2019-03-19T19:28:30.874Z,97722.81
2019-03-19T19:31:02.239Z,97721.16
2019-03-19T19:33:32.704Z,97724.47
2019-03-19T19:36:03.174Z,97723.17
2019-03-19T19:38:33.630Z,97728.63
2019-03-19T19:41:04.337Z,97731.53
2019-03-19T19:43:34.695Z,97734.82
2019-03-19T19:46:05.990Z,97731.36
2019-03-19T19:48:36.415Z,97741.92
2019-03-19T19:51:06.885Z,97744.78
2019-03-19T19:53:37.193Z,97746.78
2019-03-19T19:56:09.256Z,97749.18
2019-03-19T19:58:42.043Z,97752.84
2019-03-19T20:01:12.862Z,97751.63
2019-03-19T20:03:43.154Z,97755.52
2019-03-19T20:06:13.503Z,97754.77
2019-03-19T20:08:44.195Z,97756.86
2019-03-19T20:11:14.711Z,97760.87
2019-03-19T20:13:45.099Z,97760.59
2019-03-19T20:16:15.572Z,97763.97
2019-03-19T20:18:45.996Z,97762.52
2019-03-19T20:21:17.420Z,97759.80
2019-03-19T20:23:47.734Z,97765.22
2019-03-19T20:26:18.209Z,97754.84
2019-03-19T20:28:48.646Z,97759.27
2019-03-19T20:31:19.086Z,97768.70
2019-03-19T20:33:49.475Z,97771.70
2019-03-19T20:36:19.854Z,97768.21
2019-03-19T20:38:50.199Z,97775.77
2019-03-19T20:41:20.526Z,97774.30
2019-03-19T20:43:51.104Z,97767.84
2019-03-19T20:46:21.448Z,97770.20
2019-03-19T20:48:51.959Z,97775.34
2019-03-19T20:51:22.423Z,97783.44
2019-03-19T20:53:52.930Z,97781.83
2019-03-19T20:56:23.429Z,97782.52
2019-03-19T20:58:53.775Z,97775.95
2019-03-19T21:01:24.202Z,97790.16
2019-03-19T21:03:54.549Z,97793.48
2019-03-19T21:06:25.049Z,97801.80
2019-03-19T21:08:55.529Z,97802.47
2019-03-19T21:11:25.913Z,97809.39
2019-03-19T21:13:57.205Z,97813.13
2019-03-19T21:16:29.385Z,97807.38
2019-03-19T21:18:59.646Z,97808.64
2019-03-19T21:21:30.029Z,97811.84
2019-03-19T21:24:00.334Z,97807.97
2019-03-19T21:26:30.735Z,97814.06
2019-03-19T21:29:01.193Z,97814.65
2019-03-19T21:31:31.646Z,97811.17
2019-03-19T21:34:02.273Z,97809.69
2019-03-19T21:36:32.691Z,97818.03
2019-03-19T21:39:03.142Z,97816.16
2019-03-19T21:41:33.492Z,97808.39
2019-03-19T21:44:03.953Z,97811.34
2019-03-19T21:46:34.402Z,97810.52
2019-03-19T21:49:04.824Z,97802.85
2019-03-19T21:51:35.296Z,97806.94
2019-03-19T21:54:05.724Z,97816.64
2019-03-19T21:56:36.155Z,97824.26
2019-03-19T21:59:06.608Z,97818.41
2019-03-19T22:01:37.020Z,97817.04
2019-03-19T22:04:07.357Z,97824.89
2019-03-19T22:06:37.775Z,97831.59
2019-03-19T22:09:08.704Z,97835.84
2019-03-19T22:11:39.068Z,97837.71
2019-03-19T22:14:09.535Z,97836.97
2019-03-19T22:16:39.999Z,97836.20
2019-03-19T22:19:10.336Z,97837.63
2019-03-19T22:21:40.808Z,97838.91
2019-03-19T22:24:11.175Z,97841.09
2019-03-19T22:26:41.644Z,97847.76
2019-03-19T22:29:12.806Z,97848.09
2019-03-19T22:31:43.202Z,97842.46
2019-03-19T22:34:14.467Z,97842.39
2019-03-19T22:36:45.296Z,97839.11
2019-03-19T22:39:15.717Z,97846.50
2019-03-19T22:41:46.175Z,97840.88
2019-03-19T22:44:16.599Z,97852.16
2019-03-19T22:46:46.891Z,97853.53
2019-03-19T22:49:17.317Z,97843.94
2019-03-19T22:51:47.716Z,97852.61
2019-03-19T22:54:18.124Z,97853.00
2019-03-19T22:56:48.504Z,97852.72
2019-03-19T22:59:18.952Z,97860.02
2019-03-19T23:01:49.400Z,97863.91
2019-03-19T23:04:27.111Z,97858.27
2019-03-19T23:06:52.103Z,97870.58
2019-03-19T23:09:22.524Z,97872.96
2019-03-19T23:11:53.005Z,97871.33
2019-03-19T23:14:23.851Z,97873.71
2019-03-19T23:16:54.336Z,97870.95
2019-03-19T23:19:24.874Z,97874.09
2019-03-19T23:21:55.264Z,97874.84
2019-03-19T23:24:25.734Z,97879.63
2019-03-19T23:26:56.261Z,97882.77
2019-03-19T23:29:26.710Z,97887.39
2019-03-19T23:31:57.086Z,97881.13
2019-03-19T23:34:37.898Z,97880.93
2019-03-19T23:36:59.588Z,97890.89
2019-03-19T23:39:30.013Z,97884.80
2019-03-19T23:42:00.451Z,97888.30
2019-03-19T23:44:30.907Z,97886.47
2019-03-19T23:47:01.261Z,97889.05
2019-03-19T23:49:31.548Z,97888.52
2019-03-19T23:52:01.946Z,97887.02
2019-03-19T23:54:32.389Z,97896.64
2019-03-19T23:57:02.730Z,97896.27
2019-03-19T23:59:33.102Z,97900.13
